sensor_id;sensor_type;location;lat;lon;timestamp;P1;durP1;ratioP1;P2;durP2;ratioP2
80229;SDS011;69540;42.136;24.742;2023-05-10T00:00:12;2.45;;;2.35;;
80229;SDS011;69540;42.136;24.742;2023-05-10T00:02:38;2.45;;;2.30;;
80229;SDS011;69540;42.136;24.742;2023-05-10T00:05:04;2.30;;;2.03;;
80229;SDS011;69540;42.136;24.742;2023-05-10T00:07:30;2.70;;;2.50;;
80229;SDS011;69540;42.136;24.742;2023-05-10T00:09:56;2.45;;;2.30;;
80229;SDS011;69540;42.136;24.742;2023-05-10T00:12:21;2.80;;;2.60;;
80229;SDS011;69540;42.136;24.742;2023-05-10T00:14:47;2.60;;;2.40;;
80229;SDS011;69540;42.136;24.742;2023-05-10T00:17:13;2.30;;;2.10;;
80229;SDS011;69540;42.136;24.742;2023-05-10T00:19:39;2.45;;;2.25;;
80229;SDS011;69540;42.136;24.742;2023-05-10T00:22:05;2.70;;;2.50;;
80229;SDS011;69540;42.136;24.742;2023-05-10T00:24:31;2.70;;;2.28;;
80229;SDS011;69540;42.136;24.742;2023-05-10T00:26:56;2.55;;;2.13;;
80229;SDS011;69540;42.136;24.742;2023-05-10T00:29:22;2.70;;;2.50;;
80229;SDS011;69540;42.136;24.742;2023-05-10T00:31:47;2.63;;;2.42;;
80229;SDS011;69540;42.136;24.742;2023-05-10T00:34:13;2.40;;;2.30;;
80229;SDS011;69540;42.136;24.742;2023-05-10T00:36:39;2.60;;;2.35;;
80229;SDS011;69540;42.136;24.742;2023-05-10T00:39:04;2.42;;;2.33;;
80229;SDS011;69540;42.136;24.742;2023-05-10T00:41:31;2.70;;;2.50;;
80229;SDS011;69540;42.136;24.742;2023-05-10T00:43:59;2.58;;;2.33;;
80229;SDS011;69540;42.136;24.742;2023-05-10T00:46:25;2.42;;;2.22;;
80229;SDS011;69540;42.136;24.742;2023-05-10T00:48:51;2.60;;;2.40;;
80229;SDS011;69540;42.136;24.742;2023-05-10T00:51:18;2.30;;;2.03;;
80229;SDS011;69540;42.136;24.742;2023-05-10T00:53:44;2.60;;;2.40;;
80229;SDS011;69540;42.136;24.742;2023-05-10T00:56:11;2.40;;;2.25;;
80229;SDS011;69540;42.136;24.742;2023-05-10T00:58:37;2.88;;;2.67;;
80229;SDS011;69540;42.136;24.742;2023-05-10T01:01:04;2.63;;;2.42;;
80229;SDS011;69540;42.136;24.742;2023-05-10T01:03:31;2.50;;;2.30;;
80229;SDS011;69540;42.136;24.742;2023-05-10T01:05:57;2.40;;;2.30;;
80229;SDS011;69540;42.136;24.742;2023-05-10T01:08:23;2.25;;;2.15;;
80229;SDS011;69540;42.136;24.742;2023-05-10T01:10:49;2.22;;;2.10;;
80229;SDS011;69540;42.136;24.742;2023-05-10T01:13:30;3.13;;;2.42;;
80229;SDS011;69540;42.136;24.742;2023-05-10T01:16:03;2.35;;;2.25;;
80229;SDS011;69540;42.136;24.742;2023-05-10T01:18:30;2.28;;;2.17;;
80229;SDS011;69540;42.136;24.742;2023-05-10T01:21:04;2.70;;;2.50;;
80229;SDS011;69540;42.136;24.742;2023-05-10T01:29:32;2.00;;;1.90;;
80229;SDS011;69540;42.136;24.742;2023-05-10T01:32:29;2.33;;;2.00;;
80229;SDS011;69540;42.136;24.742;2023-05-10T01:35:10;2.40;;;2.20;;
80229;SDS011;69540;42.136;24.742;2023-05-10T01:38:00;2.63;;;2.25;;
80229;SDS011;69540;42.136;24.742;2023-05-10T01:40:39;2.33;;;2.13;;
80229;SDS011;69540;42.136;24.742;2023-05-10T01:43:30;2.15;;;2.05;;
80229;SDS011;69540;42.136;24.742;2023-05-10T01:46:04;2.30;;;2.10;;
80229;SDS011;69540;42.136;24.742;2023-05-10T01:48:39;2.05;;;1.95;;
80229;SDS011;69540;42.136;24.742;2023-05-10T01:51:12;2.13;;;1.90;;
80229;SDS011;69540;42.136;24.742;2023-05-10T01:53:41;2.20;;;2.10;;
80229;SDS011;69540;42.136;24.742;2023-05-10T01:56:09;2.58;;;2.17;;
80229;SDS011;69540;42.136;24.742;2023-05-10T01:58:37;2.53;;;2.33;;
80229;SDS011;69540;42.136;24.742;2023-05-10T02:01:05;2.47;;;2.28;;
80229;SDS011;69540;42.136;24.742;2023-05-10T02:03:33;2.20;;;2.00;;
80229;SDS011;69540;42.136;24.742;2023-05-10T02:06:01;2.20;;;2.10;;
80229;SDS011;69540;42.136;24.742;2023-05-10T02:08:28;2.45;;;2.35;;
80229;SDS011;69540;42.136;24.742;2023-05-10T02:10:55;2.10;;;2.00;;
80229;SDS011;69540;42.136;24.742;2023-05-10T02:13:23;2.72;;;2.50;;
80229;SDS011;69540;42.136;24.742;2023-05-10T02:15:51;2.20;;;2.00;;
80229;SDS011;69540;42.136;24.742;2023-05-10T02:18:18;2.13;;;2.00;;
80229;SDS011;69540;42.136;24.742;2023-05-10T02:20:46;2.17;;;2.08;;
80229;SDS011;69540;42.136;24.742;2023-05-10T02:23:13;2.47;;;2.28;;
80229;SDS011;69540;42.136;24.742;2023-05-10T02:25:40;2.20;;;2.00;;
80229;SDS011;69540;42.136;24.742;2023-05-10T02:28:08;2.10;;;2.00;;
80229;SDS011;69540;42.136;24.742;2023-05-10T02:30:36;2.10;;;2.00;;
80229;SDS011;69540;42.136;24.742;2023-05-10T02:33:03;2.00;;;1.90;;
80229;SDS011;69540;42.136;24.742;2023-05-10T02:35:50;2.60;;;2.10;;
80229;SDS011;69540;42.136;24.742;2023-05-10T02:38:20;2.25;;;2.15;;
80229;SDS011;69540;42.136;24.742;2023-05-10T02:40:47;2.03;;;1.92;;
80229;SDS011;69540;42.136;24.742;2023-05-10T02:43:14;2.05;;;1.95;;
80229;SDS011;69540;42.136;24.742;2023-05-10T02:45:42;2.60;;;2.40;;
80229;SDS011;69540;42.136;24.742;2023-05-10T02:48:12;2.42;;;2.22;;
80229;SDS011;69540;42.136;24.742;2023-05-10T02:50:37;2.45;;;2.25;;
80229;SDS011;69540;42.136;24.742;2023-05-10T02:53:09;2.30;;;2.10;;
80229;SDS011;69540;42.136;24.742;2023-05-10T02:55:40;2.15;;;2.05;;
80229;SDS011;69540;42.136;24.742;2023-05-10T02:58:07;2.50;;;2.30;;
80229;SDS011;69540;42.136;24.742;2023-05-10T03:00:33;2.08;;;1.98;;
80229;SDS011;69540;42.136;24.742;2023-05-10T03:03:00;1.98;;;1.88;;
80229;SDS011;69540;42.136;24.742;2023-05-10T03:05:26;2.20;;;2.00;;
80229;SDS011;69540;42.136;24.742;2023-05-10T03:07:52;1.92;;;1.83;;
80229;SDS011;69540;42.136;24.742;2023-05-10T03:10:18;2.33;;;2.15;;
80229;SDS011;69540;42.136;24.742;2023-05-10T03:12:57;2.13;;;2.03;;
80229;SDS011;69540;42.136;24.742;2023-05-10T03:15:50;2.40;;;2.30;;
80229;SDS011;69540;42.136;24.742;2023-05-10T03:21:04;2.15;;;2.05;;
80229;SDS011;69540;42.136;24.742;2023-05-10T03:26:12;2.28;;;2.08;;
80229;SDS011;69540;42.136;24.742;2023-05-10T03:28:42;2.13;;;2.03;;
80229;SDS011;69540;42.136;24.742;2023-05-10T03:31:09;2.33;;;2.08;;
80229;SDS011;69540;42.136;24.742;2023-05-10T03:33:45;2.03;;;1.92;;
80229;SDS011;69540;42.136;24.742;2023-05-10T03:36:12;2.33;;;2.13;;
80229;SDS011;69540;42.136;24.742;2023-05-10T03:38:37;2.35;;;2.22;;
80229;SDS011;69540;42.136;24.742;2023-05-10T03:41:03;2.50;;;2.30;;
80229;SDS011;69540;42.136;24.742;2023-05-10T03:43:29;2.10;;;2.00;;
80229;SDS011;69540;42.136;24.742;2023-05-10T03:45:54;1.98;;;1.88;;
80229;SDS011;69540;42.136;24.742;2023-05-10T03:48:20;3.55;;;2.20;;
80229;SDS011;69540;42.136;24.742;2023-05-10T03:50:46;2.78;;;2.53;;
80229;SDS011;69540;42.136;24.742;2023-05-10T03:53:14;5.68;;;2.97;;
80229;SDS011;69540;42.136;24.742;2023-05-10T03:55:40;4.47;;;2.90;;
80229;SDS011;69540;42.136;24.742;2023-05-10T03:58:06;4.30;;;2.97;;
80229;SDS011;69540;42.136;24.742;2023-05-10T04:00:31;5.20;;;2.90;;
80229;SDS011;69540;42.136;24.742;2023-05-10T04:02:57;4.85;;;2.97;;
80229;SDS011;69540;42.136;24.742;2023-05-10T04:05:23;3.40;;;3.10;;
80229;SDS011;69540;42.136;24.742;2023-05-10T04:07:49;6.18;;;3.03;;
80229;SDS011;69540;42.136;24.742;2023-05-10T04:10:16;7.00;;;3.03;;
80229;SDS011;69540;42.136;24.742;2023-05-10T04:12:41;7.45;;;3.10;;
80229;SDS011;69540;42.136;24.742;2023-05-10T04:15:07;5.95;;;3.40;;
80229;SDS011;69540;42.136;24.742;2023-05-10T04:17:33;5.53;;;3.72;;
80229;SDS011;69540;42.136;24.742;2023-05-10T04:19:59;4.70;;;3.42;;
80229;SDS011;69540;42.136;24.742;2023-05-10T04:22:24;6.30;;;3.47;;
80229;SDS011;69540;42.136;24.742;2023-05-10T04:24:50;6.13;;;3.88;;
80229;SDS011;69540;42.136;24.742;2023-05-10T04:27:16;6.65;;;3.88;;
80229;SDS011;69540;42.136;24.742;2023-05-10T04:29:41;8.43;;;3.92;;
80229;SDS011;69540;42.136;24.742;2023-05-10T04:32:07;9.48;;;4.32;;
80229;SDS011;69540;42.136;24.742;2023-05-10T04:34:35;6.85;;;3.67;;
80229;SDS011;69540;42.136;24.742;2023-05-10T04:37:01;8.20;;;3.38;;
80229;SDS011;69540;42.136;24.742;2023-05-10T04:39:26;7.32;;;3.63;;
80229;SDS011;69540;42.136;24.742;2023-05-10T04:41:52;7.57;;;3.45;;
80229;SDS011;69540;42.136;24.742;2023-05-10T04:47:57;7.75;;;4.00;;
80229;SDS011;69540;42.136;24.742;2023-05-10T04:50:22;15.60;;;4.30;;
80229;SDS011;69540;42.136;24.742;2023-05-10T04:52:48;11.73;;;4.03;;
80229;SDS011;69540;42.136;24.742;2023-05-10T04:55:13;7.80;;;3.88;;
80229;SDS011;69540;42.136;24.742;2023-05-10T04:57:39;7.10;;;3.80;;
80229;SDS011;69540;42.136;24.742;2023-05-10T05:00:05;7.53;;;3.60;;
80229;SDS011;69540;42.136;24.742;2023-05-10T05:02:31;9.45;;;3.67;;
80229;SDS011;69540;42.136;24.742;2023-05-10T05:04:57;9.38;;;3.85;;
80229;SDS011;69540;42.136;24.742;2023-05-10T05:07:22;5.47;;;3.47;;
80229;SDS011;69540;42.136;24.742;2023-05-10T05:09:48;6.88;;;3.80;;
80229;SDS011;69540;42.136;24.742;2023-05-10T05:12:14;8.73;;;3.63;;
80229;SDS011;69540;42.136;24.742;2023-05-10T05:14:40;8.80;;;4.10;;
80229;SDS011;69540;42.136;24.742;2023-05-10T05:17:06;7.60;;;3.90;;
80229;SDS011;69540;42.136;24.742;2023-05-10T05:19:32;7.00;;;3.63;;
80229;SDS011;69540;42.136;24.742;2023-05-10T05:22:06;8.45;;;3.60;;
80229;SDS011;69540;42.136;24.742;2023-05-10T05:25:04;14.77;;;3.72;;
80229;SDS011;69540;42.136;24.742;2023-05-10T05:27:31;5.45;;;3.30;;
80229;SDS011;69540;42.136;24.742;2023-05-10T05:29:58;8.63;;;3.40;;
80229;SDS011;69540;42.136;24.742;2023-05-10T05:32:24;6.32;;;3.33;;
80229;SDS011;69540;42.136;24.742;2023-05-10T05:34:50;9.52;;;3.30;;
80229;SDS011;69540;42.136;24.742;2023-05-10T05:37:19;8.18;;;3.60;;
80229;SDS011;69540;42.136;24.742;2023-05-10T05:40:11;8.48;;;3.75;;
80229;SDS011;69540;42.136;24.742;2023-05-10T05:45:18;7.18;;;3.60;;
80229;SDS011;69540;42.136;24.742;2023-05-10T05:47:43;9.10;;;3.50;;
80229;SDS011;69540;42.136;24.742;2023-05-10T05:50:30;9.85;;;3.60;;
80229;SDS011;69540;42.136;24.742;2023-05-10T05:53:21;10.10;;;3.58;;
80229;SDS011;69540;42.136;24.742;2023-05-10T05:55:54;7.30;;;3.97;;
80229;SDS011;69540;42.136;24.742;2023-05-10T05:58:23;6.38;;;3.65;;
80229;SDS011;69540;42.136;24.742;2023-05-10T06:00:53;6.43;;;3.57;;
80229;SDS011;69540;42.136;24.742;2023-05-10T06:03:19;7.40;;;3.22;;
80229;SDS011;69540;42.136;24.742;2023-05-10T06:05:45;6.05;;;3.45;;
80229;SDS011;69540;42.136;24.742;2023-05-10T06:08:10;11.23;;;3.40;;
80229;SDS011;69540;42.136;24.742;2023-05-10T06:10:36;7.13;;;3.55;;
80229;SDS011;69540;42.136;24.742;2023-05-10T06:13:02;6.18;;;3.30;;
80229;SDS011;69540;42.136;24.742;2023-05-10T06:15:33;7.20;;;3.30;;
80229;SDS011;69540;42.136;24.742;2023-05-10T06:17:59;5.43;;;3.13;;
80229;SDS011;69540;42.136;24.742;2023-05-10T06:20:25;10.75;;;3.30;;
80229;SDS011;69540;42.136;24.742;2023-05-10T06:22:51;5.43;;;3.20;;
80229;SDS011;69540;42.136;24.742;2023-05-10T06:25:19;4.68;;;2.88;;
80229;SDS011;69540;42.136;24.742;2023-05-10T06:27:44;8.43;;;3.00;;
80229;SDS011;69540;42.136;24.742;2023-05-10T06:30:10;7.18;;;3.15;;
80229;SDS011;69540;42.136;24.742;2023-05-10T06:32:38;4.22;;;2.50;;
80229;SDS011;69540;42.136;24.742;2023-05-10T06:35:03;7.35;;;2.90;;
80229;SDS011;69540;42.136;24.742;2023-05-10T06:37:29;7.68;;;3.10;;
80229;SDS011;69540;42.136;24.742;2023-05-10T06:39:55;5.90;;;3.10;;
80229;SDS011;69540;42.136;24.742;2023-05-10T06:42:23;7.97;;;3.40;;
80229;SDS011;69540;42.136;24.742;2023-05-10T06:44:52;4.30;;;2.70;;
80229;SDS011;69540;42.136;24.742;2023-05-10T06:47:18;5.45;;;3.03;;
80229;SDS011;69540;42.136;24.742;2023-05-10T06:49:43;3.47;;;2.88;;
80229;SDS011;69540;42.136;24.742;2023-05-10T06:52:09;5.80;;;3.03;;
80229;SDS011;69540;42.136;24.742;2023-05-10T06:54:35;3.95;;;2.83;;
80229;SDS011;69540;42.136;24.742;2023-05-10T06:57:00;4.82;;;2.80;;
80229;SDS011;69540;42.136;24.742;2023-05-10T06:59:28;7.22;;;2.60;;
80229;SDS011;69540;42.136;24.742;2023-05-10T07:01:53;3.78;;;2.67;;
80229;SDS011;69540;42.136;24.742;2023-05-10T07:04:19;6.50;;;3.60;;
80229;SDS011;69540;42.136;24.742;2023-05-10T07:06:45;5.05;;;2.88;;
80229;SDS011;69540;42.136;24.742;2023-05-10T07:09:11;3.85;;;2.60;;
80229;SDS011;69540;42.136;24.742;2023-05-10T07:11:38;4.50;;;2.60;;
80229;SDS011;69540;42.136;24.742;2023-05-10T07:14:04;3.53;;;2.65;;
80229;SDS011;69540;42.136;24.742;2023-05-10T07:16:30;4.13;;;2.80;;
80229;SDS011;69540;42.136;24.742;2023-05-10T07:18:58;5.28;;;2.97;;
80229;SDS011;69540;42.136;24.742;2023-05-10T07:21:24;5.07;;;2.95;;
80229;SDS011;69540;42.136;24.742;2023-05-10T07:23:59;2.70;;;2.50;;
80229;SDS011;69540;42.136;24.742;2023-05-10T07:26:25;3.75;;;2.40;;
80229;SDS011;69540;42.136;24.742;2023-05-10T07:28:51;4.07;;;2.63;;
80229;SDS011;69540;42.136;24.742;2023-05-10T07:31:20;3.67;;;3.00;;
80229;SDS011;69540;42.136;24.742;2023-05-10T07:33:55;6.50;;;2.83;;
80229;SDS011;69540;42.136;24.742;2023-05-10T07:37:00;3.38;;;2.55;;
80229;SDS011;69540;42.136;24.742;2023-05-10T07:39:29;4.82;;;3.10;;
80229;SDS011;69540;42.136;24.742;2023-05-10T07:41:55;8.75;;;2.90;;
80229;SDS011;69540;42.136;24.742;2023-05-10T07:44:20;5.55;;;2.65;;
80229;SDS011;69540;42.136;24.742;2023-05-10T07:46:46;4.57;;;2.70;;
80229;SDS011;69540;42.136;24.742;2023-05-10T07:49:31;3.28;;;2.53;;
80229;SDS011;69540;42.136;24.742;2023-05-10T07:52:03;5.45;;;2.70;;
80229;SDS011;69540;42.136;24.742;2023-05-10T07:54:38;5.05;;;2.58;;
80229;SDS011;69540;42.136;24.742;2023-05-10T08:00:08;11.02;;;2.70;;
80229;SDS011;69540;42.136;24.742;2023-05-10T08:02:37;11.85;;;2.95;;
80229;SDS011;69540;42.136;24.742;2023-05-10T08:05:05;9.25;;;2.80;;
80229;SDS011;69540;42.136;24.742;2023-05-10T08:07:31;12.00;;;3.00;;
80229;SDS011;69540;42.136;24.742;2023-05-10T08:09:57;16.23;;;3.10;;
80229;SDS011;69540;42.136;24.742;2023-05-10T08:12:23;11.52;;;3.13;;
80229;SDS011;69540;42.136;24.742;2023-05-10T08:14:48;8.98;;;2.95;;
80229;SDS011;69540;42.136;24.742;2023-05-10T08:17:14;9.63;;;2.70;;
80229;SDS011;69540;42.136;24.742;2023-05-10T08:19:40;13.32;;;3.00;;
80229;SDS011;69540;42.136;24.742;2023-05-10T08:22:05;8.23;;;2.40;;
80229;SDS011;69540;42.136;24.742;2023-05-10T08:24:31;8.10;;;2.70;;
80229;SDS011;69540;42.136;24.742;2023-05-10T08:27:10;14.77;;;3.10;;
80229;SDS011;69540;42.136;24.742;2023-05-10T08:29:38;9.57;;;3.03;;
80229;SDS011;69540;42.136;24.742;2023-05-10T08:32:04;10.63;;;2.90;;
80229;SDS011;69540;42.136;24.742;2023-05-10T08:34:30;8.02;;;2.90;;
80229;SDS011;69540;42.136;24.742;2023-05-10T08:36:56;4.75;;;2.60;;
80229;SDS011;69540;42.136;24.742;2023-05-10T08:39:22;11.07;;;2.97;;
80229;SDS011;69540;42.136;24.742;2023-05-10T08:41:48;7.32;;;2.65;;
80229;SDS011;69540;42.136;24.742;2023-05-10T08:44:18;12.05;;;3.10;;
80229;SDS011;69540;42.136;24.742;2023-05-10T08:46:45;5.47;;;2.60;;
80229;SDS011;69540;42.136;24.742;2023-05-10T08:49:16;10.27;;;3.15;;
80229;SDS011;69540;42.136;24.742;2023-05-10T08:51:43;12.13;;;2.95;;
80229;SDS011;69540;42.136;24.742;2023-05-10T08:54:16;6.35;;;2.53;;
80229;SDS011;69540;42.136;24.742;2023-05-10T08:56:42;7.30;;;3.15;;
80229;SDS011;69540;42.136;24.742;2023-05-10T08:59:08;5.82;;;2.60;;
80229;SDS011;69540;42.136;24.742;2023-05-10T09:01:33;9.40;;;2.75;;
80229;SDS011;69540;42.136;24.742;2023-05-10T09:04:01;8.55;;;2.45;;
80229;SDS011;69540;42.136;24.742;2023-05-10T09:06:27;9.60;;;2.60;;
80229;SDS011;69540;42.136;24.742;2023-05-10T09:08:54;5.03;;;2.58;;
80229;SDS011;69540;42.136;24.742;2023-05-10T09:11:20;4.55;;;2.42;;
80229;SDS011;69540;42.136;24.742;2023-05-10T09:13:46;8.00;;;2.53;;
80229;SDS011;69540;42.136;24.742;2023-05-10T09:16:13;4.75;;;2.55;;
80229;SDS011;69540;42.136;24.742;2023-05-10T09:18:39;9.65;;;2.80;;
80229;SDS011;69540;42.136;24.742;2023-05-10T09:21:05;7.38;;;2.88;;
80229;SDS011;69540;42.136;24.742;2023-05-10T09:23:30;6.38;;;2.70;;
80229;SDS011;69540;42.136;24.742;2023-05-10T09:26:04;8.70;;;2.42;;
80229;SDS011;69540;42.136;24.742;2023-05-10T09:29:12;4.30;;;2.53;;
80229;SDS011;69540;42.136;24.742;2023-05-10T09:31:23;6.10;;;2.28;;
80229;SDS011;69540;42.136;24.742;2023-05-10T09:33:52;5.55;;;2.40;;
80229;SDS011;69540;42.136;24.742;2023-05-10T09:36:18;2.47;;;2.20;;
80229;SDS011;69540;42.136;24.742;2023-05-10T09:38:50;7.90;;;3.03;;
80229;SDS011;69540;42.136;24.742;2023-05-10T09:41:17;3.13;;;2.65;;
80229;SDS011;69540;42.136;24.742;2023-05-10T09:43:44;6.28;;;2.75;;
80229;SDS011;69540;42.136;24.742;2023-05-10T09:46:09;5.15;;;2.60;;
80229;SDS011;69540;42.136;24.742;2023-05-10T09:48:40;4.47;;;2.63;;
80229;SDS011;69540;42.136;24.742;2023-05-10T09:51:15;6.28;;;2.58;;
80229;SDS011;69540;42.136;24.742;2023-05-10T09:56:37;4.40;;;2.53;;
80229;SDS011;69540;42.136;24.742;2023-05-10T09:59:09;4.03;;;2.50;;
80229;SDS011;69540;42.136;24.742;2023-05-10T10:01:39;4.32;;;2.55;;
80229;SDS011;69540;42.136;24.742;2023-05-10T10:04:06;6.13;;;2.50;;
80229;SDS011;69540;42.136;24.742;2023-05-10T10:06:39;3.33;;;2.60;;
80229;SDS011;69540;42.136;24.742;2023-05-10T10:09:14;4.57;;;2.97;;
80229;SDS011;69540;42.136;24.742;2023-05-10T10:11:43;5.55;;;2.60;;
80229;SDS011;69540;42.136;24.742;2023-05-10T10:14:09;3.60;;;2.63;;
80229;SDS011;69540;42.136;24.742;2023-05-10T10:16:36;5.25;;;2.67;;
80229;SDS011;69540;42.136;24.742;2023-05-10T10:19:02;4.32;;;2.80;;
80229;SDS011;69540;42.136;24.742;2023-05-10T10:24:31;4.80;;;2.90;;
80229;SDS011;69540;42.136;24.742;2023-05-10T10:27:02;7.20;;;2.78;;
80229;SDS011;69540;42.136;24.742;2023-05-10T10:29:39;4.80;;;2.90;;
80229;SDS011;69540;42.136;24.742;2023-05-10T10:32:42;5.05;;;2.60;;
80229;SDS011;69540;42.136;24.742;2023-05-10T10:35:33;7.32;;;2.55;;
80229;SDS011;69540;42.136;24.742;2023-05-10T10:37:59;5.80;;;3.00;;
80229;SDS011;69540;42.136;24.742;2023-05-10T10:43:27;3.70;;;2.50;;
80229;SDS011;69540;42.136;24.742;2023-05-10T10:49:11;3.05;;;2.67;;
80229;SDS011;69540;42.136;24.742;2023-05-10T10:51:39;3.45;;;2.38;;
80229;SDS011;69540;42.136;24.742;2023-05-10T10:57:31;3.03;;;2.75;;
80229;SDS011;69540;42.136;24.742;2023-05-10T11:06:17;3.85;;;2.70;;
80229;SDS011;69540;42.136;24.742;2023-05-10T11:09:07;5.30;;;2.88;;
80229;SDS011;69540;42.136;24.742;2023-05-10T11:11:37;3.30;;;3.00;;
80229;SDS011;69540;42.136;24.742;2023-05-10T11:14:32;5.25;;;2.80;;
80229;SDS011;69540;42.136;24.742;2023-05-10T11:20:08;6.72;;;2.90;;
80229;SDS011;69540;42.136;24.742;2023-05-10T11:25:16;5.28;;;2.92;;
80229;SDS011;69540;42.136;24.742;2023-05-10T11:28:00;4.78;;;2.75;;
80229;SDS011;69540;42.136;24.742;2023-05-10T11:30:38;4.45;;;2.67;;
80229;SDS011;69540;42.136;24.742;2023-05-10T11:33:07;6.90;;;2.97;;
80229;SDS011;69540;42.136;24.742;2023-05-10T11:38:20;6.07;;;2.80;;
80229;SDS011;69540;42.136;24.742;2023-05-10T11:40:46;4.45;;;2.88;;
80229;SDS011;69540;42.136;24.742;2023-05-10T11:43:16;6.85;;;3.10;;
80229;SDS011;69540;42.136;24.742;2023-05-10T11:45:42;4.45;;;2.80;;
80229;SDS011;69540;42.136;24.742;2023-05-10T11:48:07;5.78;;;2.65;;
80229;SDS011;69540;42.136;24.742;2023-05-10T11:50:33;4.07;;;2.90;;
80229;SDS011;69540;42.136;24.742;2023-05-10T11:53:04;3.53;;;3.20;;
80229;SDS011;69540;42.136;24.742;2023-05-10T11:55:32;5.63;;;3.00;;
80229;SDS011;69540;42.136;24.742;2023-05-10T11:58:01;4.20;;;2.85;;
80229;SDS011;69540;42.136;24.742;2023-05-10T12:00:27;5.43;;;3.20;;
80229;SDS011;69540;42.136;24.742;2023-05-10T12:02:53;5.68;;;2.80;;
80229;SDS011;69540;42.136;24.742;2023-05-10T12:05:19;5.60;;;2.80;;
80229;SDS011;69540;42.136;24.742;2023-05-10T12:08:10;6.28;;;3.33;;
80229;SDS011;69540;42.136;24.742;2023-05-10T12:10:39;5.22;;;2.85;;
80229;SDS011;69540;42.136;24.742;2023-05-10T12:13:05;3.60;;;2.65;;
80229;SDS011;69540;42.136;24.742;2023-05-10T12:15:36;4.03;;;3.05;;
80229;SDS011;69540;42.136;24.742;2023-05-10T12:18:02;5.53;;;3.00;;
80229;SDS011;69540;42.136;24.742;2023-05-10T12:20:28;4.20;;;3.00;;
80229;SDS011;69540;42.136;24.742;2023-05-10T12:22:54;5.30;;;2.95;;
80229;SDS011;69540;42.136;24.742;2023-05-10T12:25:22;4.00;;;2.78;;
80229;SDS011;69540;42.136;24.742;2023-05-10T12:27:56;5.65;;;3.00;;
80229;SDS011;69540;42.136;24.742;2023-05-10T12:32:52;5.68;;;2.92;;
80229;SDS011;69540;42.136;24.742;2023-05-10T12:35:18;3.80;;;3.13;;
80229;SDS011;69540;42.136;24.742;2023-05-10T12:37:47;3.10;;;2.80;;
80229;SDS011;69540;42.136;24.742;2023-05-10T12:40:13;6.93;;;2.80;;
80229;SDS011;69540;42.136;24.742;2023-05-10T12:42:39;5.25;;;2.97;;
80229;SDS011;69540;42.136;24.742;2023-05-10T12:45:05;4.25;;;2.85;;
80229;SDS011;69540;42.136;24.742;2023-05-10T12:47:32;5.82;;;3.00;;
80229;SDS011;69540;42.136;24.742;2023-05-10T12:49:59;6.32;;;3.40;;
80229;SDS011;69540;42.136;24.742;2023-05-10T12:52:25;3.72;;;3.00;;
80229;SDS011;69540;42.136;24.742;2023-05-10T12:54:51;6.15;;;3.30;;
80229;SDS011;69540;42.136;24.742;2023-05-10T12:57:31;4.45;;;3.00;;
80229;SDS011;69540;42.136;24.742;2023-05-10T13:00:19;3.15;;;2.90;;
80229;SDS011;69540;42.136;24.742;2023-05-10T13:02:45;6.47;;;3.20;;
80229;SDS011;69540;42.136;24.742;2023-05-10T13:05:11;4.18;;;3.17;;
80229;SDS011;69540;42.136;24.742;2023-05-10T13:07:44;4.10;;;3.40;;
80229;SDS011;69540;42.136;24.742;2023-05-10T13:11:12;3.97;;;3.30;;
80229;SDS011;69540;42.136;24.742;2023-05-10T13:13:41;6.18;;;3.20;;
80229;SDS011;69540;42.136;24.742;2023-05-10T13:16:09;3.20;;;3.00;;
80229;SDS011;69540;42.136;24.742;2023-05-10T13:18:38;3.50;;;3.20;;
80229;SDS011;69540;42.136;24.742;2023-05-10T13:24:05;5.25;;;3.40;;
80229;SDS011;69540;42.136;24.742;2023-05-10T13:26:32;3.88;;;3.58;;
80229;SDS011;69540;42.136;24.742;2023-05-10T13:28:58;4.25;;;3.55;;
80229;SDS011;69540;42.136;24.742;2023-05-10T13:31:24;3.80;;;3.50;;
80229;SDS011;69540;42.136;24.742;2023-05-10T13:33:50;5.22;;;3.53;;
80229;SDS011;69540;42.136;24.742;2023-05-10T13:36:16;3.50;;;3.20;;
80229;SDS011;69540;42.136;24.742;2023-05-10T13:38:41;4.43;;;3.20;;
80229;SDS011;69540;42.136;24.742;2023-05-10T13:41:07;3.88;;;3.40;;
80229;SDS011;69540;42.136;24.742;2023-05-10T13:46:21;6.93;;;3.58;;
80229;SDS011;69540;42.136;24.742;2023-05-10T13:48:47;4.50;;;3.40;;
80229;SDS011;69540;42.136;24.742;2023-05-10T13:51:13;3.92;;;3.63;;
80229;SDS011;69540;42.136;24.742;2023-05-10T13:53:41;5.85;;;3.85;;
80229;SDS011;69540;42.136;24.742;2023-05-10T13:59:00;3.95;;;3.65;;
80229;SDS011;69540;42.136;24.742;2023-05-10T14:01:26;4.18;;;3.80;;
80229;SDS011;69540;42.136;24.742;2023-05-10T14:03:52;5.28;;;3.80;;
80229;SDS011;69540;42.136;24.742;2023-05-10T14:06:18;4.15;;;3.78;;
80229;SDS011;69540;42.136;24.742;2023-05-10T14:08:43;4.55;;;3.58;;
80229;SDS011;69540;42.136;24.742;2023-05-10T14:11:09;5.65;;;3.58;;
80229;SDS011;69540;42.136;24.742;2023-05-10T14:13:35;4.38;;;3.95;;
80229;SDS011;69540;42.136;24.742;2023-05-10T14:16:00;4.20;;;3.80;;
80229;SDS011;69540;42.136;24.742;2023-05-10T14:18:26;3.95;;;3.60;;
80229;SDS011;69540;42.136;24.742;2023-05-10T14:20:52;3.97;;;3.58;;
80229;SDS011;69540;42.136;24.742;2023-05-10T14:23:18;4.30;;;3.90;;
80229;SDS011;69540;42.136;24.742;2023-05-10T14:25:59;7.68;;;3.72;;
80229;SDS011;69540;42.136;24.742;2023-05-10T14:28:35;4.13;;;3.83;;
80229;SDS011;69540;42.136;24.742;2023-05-10T14:31:00;4.47;;;3.95;;
80229;SDS011;69540;42.136;24.742;2023-05-10T14:33:26;4.97;;;4.15;;
80229;SDS011;69540;42.136;24.742;2023-05-10T14:35:53;5.63;;;4.57;;
80229;SDS011;69540;42.136;24.742;2023-05-10T14:38:19;4.35;;;4.05;;
80229;SDS011;69540;42.136;24.742;2023-05-10T14:40:45;4.53;;;3.85;;
80229;SDS011;69540;42.136;24.742;2023-05-10T14:43:11;4.40;;;4.00;;
80229;SDS011;69540;42.136;24.742;2023-05-10T14:45:36;4.43;;;3.95;;
80229;SDS011;69540;42.136;24.742;2023-05-10T14:48:02;3.95;;;3.58;;
80229;SDS011;69540;42.136;24.742;2023-05-10T14:50:29;4.18;;;3.88;;
80229;SDS011;69540;42.136;24.742;2023-05-10T14:55:59;4.28;;;3.85;;
80229;SDS011;69540;42.136;24.742;2023-05-10T14:58:26;4.90;;;3.80;;
80229;SDS011;69540;42.136;24.742;2023-05-10T15:00:52;7.00;;;4.13;;
80229;SDS011;69540;42.136;24.742;2023-05-10T15:03:18;4.57;;;3.88;;
80229;SDS011;69540;42.136;24.742;2023-05-10T15:05:43;4.28;;;3.85;;
80229;SDS011;69540;42.136;24.742;2023-05-10T15:08:09;4.25;;;3.60;;
80229;SDS011;69540;42.136;24.742;2023-05-10T15:10:35;4.07;;;3.70;;
80229;SDS011;69540;42.136;24.742;2023-05-10T15:13:02;5.45;;;3.95;;
80229;SDS011;69540;42.136;24.742;2023-05-10T15:15:28;4.45;;;4.05;;
80229;SDS011;69540;42.136;24.742;2023-05-10T15:17:54;7.75;;;3.88;;
80229;SDS011;69540;42.136;24.742;2023-05-10T15:20:20;4.40;;;3.83;;
80229;SDS011;69540;42.136;24.742;2023-05-10T15:22:45;6.03;;;3.75;;
80229;SDS011;69540;42.136;24.742;2023-05-10T15:25:13;4.55;;;3.90;;
80229;SDS011;69540;42.136;24.742;2023-05-10T15:33:07;4.05;;;3.47;;
80229;SDS011;69540;42.136;24.742;2023-05-10T15:35:33;4.40;;;3.13;;
80229;SDS011;69540;42.136;24.742;2023-05-10T15:38:00;3.22;;;2.92;;
80229;SDS011;69540;42.136;24.742;2023-05-10T15:40:26;3.10;;;2.90;;
80229;SDS011;69540;42.136;24.742;2023-05-10T15:42:52;3.13;;;2.92;;
80229;SDS011;69540;42.136;24.742;2023-05-10T15:45:17;3.00;;;2.80;;
80229;SDS011;69540;42.136;24.742;2023-05-10T15:47:43;2.90;;;2.70;;
80229;SDS011;69540;42.136;24.742;2023-05-10T15:50:09;3.25;;;2.95;;
80229;SDS011;69540;42.136;24.742;2023-05-10T15:52:35;3.42;;;2.50;;